sensor_id;sensor_type;location;lat;lon;timestamp;P1;durP1;ratioP1;P2;durP2;ratioP2
7150;SDS011;3617;48.836;9.172;2024-03-22T00:01:54;13.30;;;6.90;;
7150;SDS011;3617;48.836;9.172;2024-03-22T00:04:20;15.87;;;7.03;;
7150;SDS011;3617;48.836;9.172;2024-03-22T00:06:47;11.93;;;7.30;;
7150;SDS011;3617;48.836;9.172;2024-03-22T00:09:13;12.73;;;6.60;;
7150;SDS011;3617;48.836;9.172;2024-03-22T00:11:40;12.97;;;6.50;;
7150;SDS011;3617;48.836;9.172;2024-03-22T00:14:06;13.20;;;6.53;;
7150;SDS011;3617;48.836;9.172;2024-03-22T00:16:32;12.40;;;5.77;;
7150;SDS011;3617;48.836;9.172;2024-03-22T00:18:58;13.97;;;6.43;;
7150;SDS011;3617;48.836;9.172;2024-03-22T00:21:24;11.33;;;7.13;;
7150;SDS011;3617;48.836;9.172;2024-03-22T00:23:51;14.80;;;7.70;;
7150;SDS011;3617;48.836;9.172;2024-03-22T00:26:17;12.33;;;6.57;;
7150;SDS011;3617;48.836;9.172;2024-03-22T00:28:43;13.77;;;6.03;;
7150;SDS011;3617;48.836;9.172;2024-03-22T00:31:09;11.53;;;6.73;;
7150;SDS011;3617;48.836;9.172;2024-03-22T00:33:35;12.10;;;6.43;;
7150;SDS011;3617;48.836;9.172;2024-03-22T00:36:01;14.67;;;6.73;;
7150;SDS011;3617;48.836;9.172;2024-03-22T00:38:27;16.20;;;7.97;;
7150;SDS011;3617;48.836;9.172;2024-03-22T00:40:53;15.70;;;8.00;;
7150;SDS011;3617;48.836;9.172;2024-03-22T00:43:19;12.00;;;6.70;;
7150;SDS011;3617;48.836;9.172;2024-03-22T00:45:45;13.33;;;6.87;;
7150;SDS011;3617;48.836;9.172;2024-03-22T00:48:12;11.63;;;6.43;;
7150;SDS011;3617;48.836;9.172;2024-03-22T00:50:38;11.43;;;6.83;;
7150;SDS011;3617;48.836;9.172;2024-03-22T00:53:04;15.00;;;6.60;;
7150;SDS011;3617;48.836;9.172;2024-03-22T00:55:31;13.57;;;6.60;;
7150;SDS011;3617;48.836;9.172;2024-03-22T00:57:57;14.47;;;6.70;;
7150;SDS011;3617;48.836;9.172;2024-03-22T01:00:23;12.30;;;6.63;;
7150;SDS011;3617;48.836;9.172;2024-03-22T01:02:49;11.03;;;7.27;;
7150;SDS011;3617;48.836;9.172;2024-03-22T01:05:16;11.17;;;6.47;;
7150;SDS011;3617;48.836;9.172;2024-03-22T01:07:42;13.37;;;6.97;;
7150;SDS011;3617;48.836;9.172;2024-03-22T01:10:08;14.33;;;7.13;;
7150;SDS011;3617;48.836;9.172;2024-03-22T01:12:34;10.77;;;6.57;;
7150;SDS011;3617;48.836;9.172;2024-03-22T01:15:00;16.70;;;7.47;;
7150;SDS011;3617;48.836;9.172;2024-03-22T01:17:26;10.33;;;6.27;;
7150;SDS011;3617;48.836;9.172;2024-03-22T01:19:52;12.00;;;6.80;;
7150;SDS011;3617;48.836;9.172;2024-03-22T01:22:18;12.00;;;6.57;;
7150;SDS011;3617;48.836;9.172;2024-03-22T01:24:45;12.47;;;6.70;;
7150;SDS011;3617;48.836;9.172;2024-03-22T01:27:11;11.43;;;6.00;;
7150;SDS011;3617;48.836;9.172;2024-03-22T01:29:37;9.80;;;5.57;;
7150;SDS011;3617;48.836;9.172;2024-03-22T01:32:03;10.37;;;6.53;;
7150;SDS011;3617;48.836;9.172;2024-03-22T01:34:30;8.00;;;5.67;;
7150;SDS011;3617;48.836;9.172;2024-03-22T01:36:56;12.37;;;5.97;;
7150;SDS011;3617;48.836;9.172;2024-03-22T01:39:22;10.53;;;6.10;;
7150;SDS011;3617;48.836;9.172;2024-03-22T01:41:49;11.37;;;5.97;;
7150;SDS011;3617;48.836;9.172;2024-03-22T01:44:15;11.27;;;5.20;;
7150;SDS011;3617;48.836;9.172;2024-03-22T01:46:41;10.27;;;5.50;;
7150;SDS011;3617;48.836;9.172;2024-03-22T01:49:14;11.53;;;6.30;;
7150;SDS011;3617;48.836;9.172;2024-03-22T01:51:41;9.27;;;6.00;;
7150;SDS011;3617;48.836;9.172;2024-03-22T01:54:08;9.30;;;5.37;;
7150;SDS011;3617;48.836;9.172;2024-03-22T01:56:37;10.37;;;5.67;;
7150;SDS011;3617;48.836;9.172;2024-03-22T01:59:07;7.50;;;5.47;;
7150;SDS011;3617;48.836;9.172;2024-03-22T02:01:33;9.20;;;5.63;;
7150;SDS011;3617;48.836;9.172;2024-03-22T02:03:59;9.90;;;5.23;;
7150;SDS011;3617;48.836;9.172;2024-03-22T02:06:25;11.57;;;6.03;;
7150;SDS011;3617;48.836;9.172;2024-03-22T02:08:51;9.83;;;5.60;;
7150;SDS011;3617;48.836;9.172;2024-03-22T02:11:17;7.60;;;5.20;;
7150;SDS011;3617;48.836;9.172;2024-03-22T02:13:44;11.67;;;5.80;;
7150;SDS011;3617;48.836;9.172;2024-03-22T02:16:09;8.43;;;5.13;;
7150;SDS011;3617;48.836;9.172;2024-03-22T02:18:36;10.20;;;5.53;;
7150;SDS011;3617;48.836;9.172;2024-03-22T02:21:02;9.77;;;5.57;;
7150;SDS011;3617;48.836;9.172;2024-03-22T02:23:34;8.67;;;5.90;;
7150;SDS011;3617;48.836;9.172;2024-03-22T02:26:01;10.97;;;5.67;;
7150;SDS011;3617;48.836;9.172;2024-03-22T02:28:27;10.87;;;5.27;;
7150;SDS011;3617;48.836;9.172;2024-03-22T02:30:53;8.23;;;5.43;;
7150;SDS011;3617;48.836;9.172;2024-03-22T02:33:19;10.27;;;6.10;;
7150;SDS011;3617;48.836;9.172;2024-03-22T02:35:48;9.07;;;5.23;;
7150;SDS011;3617;48.836;9.172;2024-03-22T02:38:14;15.30;;;5.13;;
7150;SDS011;3617;48.836;9.172;2024-03-22T02:40:42;8.07;;;5.73;;
7150;SDS011;3617;48.836;9.172;2024-03-22T02:43:08;8.33;;;5.33;;
7150;SDS011;3617;48.836;9.172;2024-03-22T02:45:34;10.07;;;5.83;;
7150;SDS011;3617;48.836;9.172;2024-03-22T02:48:00;9.57;;;5.07;;
7150;SDS011;3617;48.836;9.172;2024-03-22T02:50:26;8.93;;;5.50;;
7150;SDS011;3617;48.836;9.172;2024-03-22T02:52:52;9.40;;;5.37;;
7150;SDS011;3617;48.836;9.172;2024-03-22T02:55:18;11.33;;;5.87;;
7150;SDS011;3617;48.836;9.172;2024-03-22T02:57:44;7.57;;;4.77;;
7150;SDS011;3617;48.836;9.172;2024-03-22T03:00:10;9.43;;;5.87;;
7150;SDS011;3617;48.836;9.172;2024-03-22T03:02:37;9.13;;;5.47;;
7150;SDS011;3617;48.836;9.172;2024-03-22T03:05:03;8.83;;;5.20;;
7150;SDS011;3617;48.836;9.172;2024-03-22T03:07:29;8.90;;;5.50;;
7150;SDS011;3617;48.836;9.172;2024-03-22T03:09:55;12.27;;;6.07;;
7150;SDS011;3617;48.836;9.172;2024-03-22T03:12:21;10.27;;;5.93;;
7150;SDS011;3617;48.836;9.172;2024-03-22T03:14:47;10.43;;;6.00;;
7150;SDS011;3617;48.836;9.172;2024-03-22T03:17:13;11.70;;;5.93;;
7150;SDS011;3617;48.836;9.172;2024-03-22T03:19:39;8.77;;;5.40;;
7150;SDS011;3617;48.836;9.172;2024-03-22T03:22:05;7.60;;;4.77;;
7150;SDS011;3617;48.836;9.172;2024-03-22T03:24:31;8.70;;;5.03;;
7150;SDS011;3617;48.836;9.172;2024-03-22T03:26:59;10.90;;;5.13;;
7150;SDS011;3617;48.836;9.172;2024-03-22T03:29:25;9.03;;;5.30;;
7150;SDS011;3617;48.836;9.172;2024-03-22T03:31:51;9.30;;;5.90;;
7150;SDS011;3617;48.836;9.172;2024-03-22T03:34:17;11.17;;;5.40;;
7150;SDS011;3617;48.836;9.172;2024-03-22T03:36:47;10.33;;;6.00;;
7150;SDS011;3617;48.836;9.172;2024-03-22T03:39:13;9.93;;;5.50;;
7150;SDS011;3617;48.836;9.172;2024-03-22T03:41:39;9.90;;;5.57;;
7150;SDS011;3617;48.836;9.172;2024-03-22T03:44:05;9.73;;;5.47;;
7150;SDS011;3617;48.836;9.172;2024-03-22T03:46:31;12.37;;;5.90;;
7150;SDS011;3617;48.836;9.172;2024-03-22T03:48:57;9.70;;;5.70;;
7150;SDS011;3617;48.836;9.172;2024-03-22T03:51:23;10.97;;;6.20;;
7150;SDS011;3617;48.836;9.172;2024-03-22T03:53:49;10.00;;;5.77;;
7150;SDS011;3617;48.836;9.172;2024-03-22T03:56:15;13.47;;;6.57;;
7150;SDS011;3617;48.836;9.172;2024-03-22T03:58:41;9.10;;;5.40;;
7150;SDS011;3617;48.836;9.172;2024-03-22T04:01:07;10.63;;;5.90;;
7150;SDS011;3617;48.836;9.172;2024-03-22T04:03:33;8.80;;;5.07;;
7150;SDS011;3617;48.836;9.172;2024-03-22T04:06:00;11.20;;;5.70;;
7150;SDS011;3617;48.836;9.172;2024-03-22T04:08:26;8.30;;;5.30;;
7150;SDS011;3617;48.836;9.172;2024-03-22T04:10:53;14.73;;;6.93;;
7150;SDS011;3617;48.836;9.172;2024-03-22T04:13:21;9.37;;;5.57;;
7150;SDS011;3617;48.836;9.172;2024-03-22T04:15:47;9.07;;;5.27;;
7150;SDS011;3617;48.836;9.172;2024-03-22T04:18:13;10.70;;;5.70;;
7150;SDS011;3617;48.836;9.172;2024-03-22T04:20:39;10.40;;;6.43;;
7150;SDS011;3617;48.836;9.172;2024-03-22T04:23:08;9.47;;;6.13;;
7150;SDS011;3617;48.836;9.172;2024-03-22T04:25:35;11.37;;;5.93;;
7150;SDS011;3617;48.836;9.172;2024-03-22T04:28:00;10.70;;;6.37;;
7150;SDS011;3617;48.836;9.172;2024-03-22T04:30:27;12.53;;;5.57;;
7150;SDS011;3617;48.836;9.172;2024-03-22T04:32:52;10.20;;;5.53;;
7150;SDS011;3617;48.836;9.172;2024-03-22T04:35:18;7.70;;;4.97;;
7150;SDS011;3617;48.836;9.172;2024-03-22T04:37:44;12.03;;;5.40;;
7150;SDS011;3617;48.836;9.172;2024-03-22T04:40:10;11.93;;;6.43;;
7150;SDS011;3617;48.836;9.172;2024-03-22T04:42:37;13.27;;;6.00;;
7150;SDS011;3617;48.836;9.172;2024-03-22T04:45:03;11.23;;;5.80;;
7150;SDS011;3617;48.836;9.172;2024-03-22T04:47:29;11.70;;;6.33;;
7150;SDS011;3617;48.836;9.172;2024-03-22T04:49:55;10.40;;;6.53;;
7150;SDS011;3617;48.836;9.172;2024-03-22T04:52:21;12.37;;;6.27;;
7150;SDS011;3617;48.836;9.172;2024-03-22T04:54:47;10.87;;;6.50;;
7150;SDS011;3617;48.836;9.172;2024-03-22T04:57:13;10.73;;;5.70;;
7150;SDS011;3617;48.836;9.172;2024-03-22T04:59:39;8.03;;;5.73;;
7150;SDS011;3617;48.836;9.172;2024-03-22T05:02:05;9.50;;;6.07;;
7150;SDS011;3617;48.836;9.172;2024-03-22T05:04:31;9.77;;;5.90;;
7150;SDS011;3617;48.836;9.172;2024-03-22T05:06:57;11.30;;;6.67;;
7150;SDS011;3617;48.836;9.172;2024-03-22T05:09:24;9.40;;;5.83;;
7150;SDS011;3617;48.836;9.172;2024-03-22T05:11:50;8.40;;;5.53;;
7150;SDS011;3617;48.836;9.172;2024-03-22T05:16:43;9.70;;;6.70;;
7150;SDS011;3617;48.836;9.172;2024-03-22T05:19:09;10.73;;;6.47;;
7150;SDS011;3617;48.836;9.172;2024-03-22T05:21:35;10.87;;;6.70;;
7150;SDS011;3617;48.836;9.172;2024-03-22T05:24:03;24.37;;;12.23;;
7150;SDS011;3617;48.836;9.172;2024-03-22T05:26:29;15.37;;;8.60;;
7150;SDS011;3617;48.836;9.172;2024-03-22T05:29:00;11.87;;;6.77;;
7150;SDS011;3617;48.836;9.172;2024-03-22T05:31:27;10.67;;;5.93;;
7150;SDS011;3617;48.836;9.172;2024-03-22T05:33:53;10.53;;;6.17;;
7150;SDS011;3617;48.836;9.172;2024-03-22T05:36:19;11.73;;;6.93;;
7150;SDS011;3617;48.836;9.172;2024-03-22T05:38:45;17.77;;;8.80;;
7150;SDS011;3617;48.836;9.172;2024-03-22T05:41:11;15.00;;;8.47;;
7150;SDS011;3617;48.836;9.172;2024-03-22T05:43:37;11.77;;;6.57;;
7150;SDS011;3617;48.836;9.172;2024-03-22T05:46:03;11.10;;;6.47;;
7150;SDS011;3617;48.836;9.172;2024-03-22T05:48:29;10.27;;;6.50;;
7150;SDS011;3617;48.836;9.172;2024-03-22T05:50:55;12.20;;;7.20;;
7150;SDS011;3617;48.836;9.172;2024-03-22T05:53:21;12.60;;;6.97;;
7150;SDS011;3617;48.836;9.172;2024-03-22T05:55:47;10.87;;;6.93;;
7150;SDS011;3617;48.836;9.172;2024-03-22T05:58:13;15.50;;;7.77;;
7150;SDS011;3617;48.836;9.172;2024-03-22T06:00:39;14.07;;;8.87;;
7150;SDS011;3617;48.836;9.172;2024-03-22T06:03:05;17.83;;;10.07;;
7150;SDS011;3617;48.836;9.172;2024-03-22T06:05:32;15.97;;;9.17;;
7150;SDS011;3617;48.836;9.172;2024-03-22T06:07:58;17.57;;;8.97;;
7150;SDS011;3617;48.836;9.172;2024-03-22T06:10:24;20.20;;;9.80;;
7150;SDS011;3617;48.836;9.172;2024-03-22T06:12:50;12.37;;;7.47;;
7150;SDS011;3617;48.836;9.172;2024-03-22T06:15:16;14.50;;;7.30;;
7150;SDS011;3617;48.836;9.172;2024-03-22T06:17:43;15.87;;;7.53;;
7150;SDS011;3617;48.836;9.172;2024-03-22T06:20:10;11.50;;;6.90;;
7150;SDS011;3617;48.836;9.172;2024-03-22T06:22:37;10.80;;;6.63;;
7150;SDS011;3617;48.836;9.172;2024-03-22T06:25:03;13.20;;;7.00;;
7150;SDS011;3617;48.836;9.172;2024-03-22T06:27:29;14.43;;;6.53;;
7150;SDS011;3617;48.836;9.172;2024-03-22T06:29:55;12.50;;;6.97;;
7150;SDS011;3617;48.836;9.172;2024-03-22T06:32:21;12.53;;;7.63;;
7150;SDS011;3617;48.836;9.172;2024-03-22T06:34:47;14.50;;;7.30;;
7150;SDS011;3617;48.836;9.172;2024-03-22T06:37:13;15.07;;;6.87;;
7150;SDS011;3617;48.836;9.172;2024-03-22T06:39:41;11.33;;;6.30;;
7150;SDS011;3617;48.836;9.172;2024-03-22T06:42:07;11.10;;;6.33;;
7150;SDS011;3617;48.836;9.172;2024-03-22T06:44:33;9.97;;;5.83;;
7150;SDS011;3617;48.836;9.172;2024-03-22T06:46:59;13.90;;;6.50;;
7150;SDS011;3617;48.836;9.172;2024-03-22T06:49:25;9.70;;;6.23;;
7150;SDS011;3617;48.836;9.172;2024-03-22T06:51:51;11.10;;;6.17;;
7150;SDS011;3617;48.836;9.172;2024-03-22T06:54:17;9.27;;;5.60;;
7150;SDS011;3617;48.836;9.172;2024-03-22T06:56:43;10.73;;;5.87;;
7150;SDS011;3617;48.836;9.172;2024-03-22T06:59:09;11.23;;;6.13;;
7150;SDS011;3617;48.836;9.172;2024-03-22T07:01:35;9.40;;;5.93;;
7150;SDS011;3617;48.836;9.172;2024-03-22T07:04:01;10.53;;;5.40;;
7150;SDS011;3617;48.836;9.172;2024-03-22T07:06:27;10.10;;;5.90;;
7150;SDS011;3617;48.836;9.172;2024-03-22T07:08:53;8.90;;;5.63;;
7150;SDS011;3617;48.836;9.172;2024-03-22T07:11:19;7.67;;;6.03;;
7150;SDS011;3617;48.836;9.172;2024-03-22T07:13:45;8.43;;;5.60;;
7150;SDS011;3617;48.836;9.172;2024-03-22T07:16:11;8.47;;;5.40;;
7150;SDS011;3617;48.836;9.172;2024-03-22T07:18:37;9.77;;;5.13;;
7150;SDS011;3617;48.836;9.172;2024-03-22T07:21:03;9.90;;;5.73;;
7150;SDS011;3617;48.836;9.172;2024-03-22T07:23:29;8.53;;;5.63;;
7150;SDS011;3617;48.836;9.172;2024-03-22T07:25:55;12.53;;;6.20;;
7150;SDS011;3617;48.836;9.172;2024-03-22T07:28:21;8.63;;;5.75;;
7150;SDS011;3617;48.836;9.172;2024-03-22T07:30:47;9.18;;;5.53;;
7150;SDS011;3617;48.836;9.172;2024-03-22T07:33:13;11.27;;;5.65;;
7150;SDS011;3617;48.836;9.172;2024-03-22T07:35:41;9.82;;;5.45;;
7150;SDS011;3617;48.836;9.172;2024-03-22T07:38:07;11.40;;;5.03;;
7150;SDS011;3617;48.836;9.172;2024-03-22T07:40:33;8.55;;;6.22;;
7150;SDS011;3617;48.836;9.172;2024-03-22T07:42:59;11.95;;;5.72;;
7150;SDS011;3617;48.836;9.172;2024-03-22T07:45:30;9.63;;;5.55;;
7150;SDS011;3617;48.836;9.172;2024-03-22T07:47:56;11.27;;;5.70;;
7150;SDS011;3617;48.836;9.172;2024-03-22T07:50:22;10.27;;;4.97;;
7150;SDS011;3617;48.836;9.172;2024-03-22T07:52:48;7.95;;;5.10;;
7150;SDS011;3617;48.836;9.172;2024-03-22T07:55:15;8.18;;;4.85;;
7150;SDS011;3617;48.836;9.172;2024-03-22T07:57:41;7.70;;;5.22;;
7150;SDS011;3617;48.836;9.172;2024-03-22T08:00:07;7.25;;;4.90;;
7150;SDS011;3617;48.836;9.172;2024-03-22T08:02:33;8.57;;;5.43;;
7150;SDS011;3617;48.836;9.172;2024-03-22T08:04:59;8.38;;;4.75;;
7150;SDS011;3617;48.836;9.172;2024-03-22T08:07:26;10.77;;;5.45;;
7150;SDS011;3617;48.836;9.172;2024-03-22T08:09:52;7.95;;;5.47;;
7150;SDS011;3617;48.836;9.172;2024-03-22T08:12:20;7.45;;;5.25;;
7150;SDS011;3617;48.836;9.172;2024-03-22T08:14:46;7.90;;;5.38;;
7150;SDS011;3617;48.836;9.172;2024-03-22T08:17:12;8.45;;;5.32;;
7150;SDS011;3617;48.836;9.172;2024-03-22T08:19:40;6.97;;;4.93;;
7150;SDS011;3617;48.836;9.172;2024-03-22T08:22:06;8.60;;;5.13;;
7150;SDS011;3617;48.836;9.172;2024-03-22T08:24:32;7.63;;;4.72;;
7150;SDS011;3617;48.836;9.172;2024-03-22T08:26:58;7.82;;;5.20;;
7150;SDS011;3617;48.836;9.172;2024-03-22T08:29:24;6.47;;;4.88;;
7150;SDS011;3617;48.836;9.172;2024-03-22T08:31:50;6.95;;;4.60;;
7150;SDS011;3617;48.836;9.172;2024-03-22T08:34:16;7.53;;;4.30;;
7150;SDS011;3617;48.836;9.172;2024-03-22T08:36:42;5.97;;;4.60;;
7150;SDS011;3617;48.836;9.172;2024-03-22T08:39:08;6.15;;;4.38;;
7150;SDS011;3617;48.836;9.172;2024-03-22T08:41:35;5.53;;;4.25;;
7150;SDS011;3617;48.836;9.172;2024-03-22T08:44:01;5.60;;;4.55;;
7150;SDS011;3617;48.836;9.172;2024-03-22T08:46:27;6.97;;;4.30;;
7150;SDS011;3617;48.836;9.172;2024-03-22T08:48:53;6.68;;;4.50;;
7150;SDS011;3617;48.836;9.172;2024-03-22T08:51:19;5.40;;;4.00;;
7150;SDS011;3617;48.836;9.172;2024-03-22T08:53:45;7.75;;;4.03;;
7150;SDS011;3617;48.836;9.172;2024-03-22T08:56:11;8.90;;;5.10;;
7150;SDS011;3617;48.836;9.172;2024-03-22T08:58:37;7.53;;;4.82;;
7150;SDS011;3617;48.836;9.172;2024-03-22T09:01:03;8.38;;;5.00;;
7150;SDS011;3617;48.836;9.172;2024-03-22T09:03:29;10.07;;;5.78;;
7150;SDS011;3617;48.836;9.172;2024-03-22T09:05:55;10.23;;;4.80;;
7150;SDS011;3617;48.836;9.172;2024-03-22T09:08:21;8.43;;;5.13;;
7150;SDS011;3617;48.836;9.172;2024-03-22T09:10:47;7.13;;;4.75;;
7150;SDS011;3617;48.836;9.172;2024-03-22T09:13:13;6.90;;;4.80;;
7150;SDS011;3617;48.836;9.172;2024-03-22T09:15:39;9.05;;;4.80;;
7150;SDS011;3617;48.836;9.172;2024-03-22T09:18:05;4.53;;;3.20;;
7150;SDS011;3617;48.836;9.172;2024-03-22T09:20:31;4.60;;;3.05;;
7150;SDS011;3617;48.836;9.172;2024-03-22T09:22:57;5.10;;;3.15;;
7150;SDS011;3617;48.836;9.172;2024-03-22T09:25:23;5.75;;;3.13;;
7150;SDS011;3617;48.836;9.172;2024-03-22T09:27:49;5.18;;;3.13;;
7150;SDS011;3617;48.836;9.172;2024-03-22T09:30:15;5.05;;;2.83;;
7150;SDS011;3617;48.836;9.172;2024-03-22T09:32:41;4.18;;;2.92;;
7150;SDS011;3617;48.836;9.172;2024-03-22T09:35:08;3.70;;;2.78;;
7150;SDS011;3617;48.836;9.172;2024-03-22T09:37:34;4.30;;;2.83;;
7150;SDS011;3617;48.836;9.172;2024-03-22T09:40:00;4.40;;;2.63;;
7150;SDS011;3617;48.836;9.172;2024-03-22T09:42:26;4.65;;;2.65;;
7150;SDS011;3617;48.836;9.172;2024-03-22T09:44:53;4.68;;;2.42;;
7150;SDS011;3617;48.836;9.172;2024-03-22T09:47:19;3.95;;;2.42;;
7150;SDS011;3617;48.836;9.172;2024-03-22T09:49:47;3.50;;;2.22;;
7150;SDS011;3617;48.836;9.172;2024-03-22T09:52:14;3.67;;;2.95;;
7150;SDS011;3617;48.836;9.172;2024-03-22T09:54:42;5.28;;;2.58;;
7150;SDS011;3617;48.836;9.172;2024-03-22T09:57:17;3.20;;;2.63;;
7150;SDS011;3617;48.836;9.172;2024-03-22T09:59:44;4.18;;;2.95;;
7150;SDS011;3617;48.836;9.172;2024-03-22T10:02:11;5.22;;;2.90;;
7150;SDS011;3617;48.836;9.172;2024-03-22T10:04:40;4.10;;;2.50;;
7150;SDS011;3617;48.836;9.172;2024-03-22T10:07:06;3.78;;;2.78;;
7150;SDS011;3617;48.836;9.172;2024-03-22T10:09:36;4.22;;;2.72;;
7150;SDS011;3617;48.836;9.172;2024-03-22T10:12:02;4.53;;;2.63;;
7150;SDS011;3617;48.836;9.172;2024-03-22T10:14:28;4.90;;;2.72;;
7150;SDS011;3617;48.836;9.172;2024-03-22T10:16:55;3.95;;;2.97;;
7150;SDS011;3617;48.836;9.172;2024-03-22T10:19:23;4.65;;;2.97;;
7150;SDS011;3617;48.836;9.172;2024-03-22T10:22:02;4.55;;;2.90;;
7150;SDS011;3617;48.836;9.172;2024-03-22T10:24:28;4.90;;;2.75;;
7150;SDS011;3617;48.836;9.172;2024-03-22T10:26:54;4.60;;;2.90;;
7150;SDS011;3617;48.836;9.172;2024-03-22T10:29:20;3.45;;;2.60;;
7150;SDS011;3617;48.836;9.172;2024-03-22T10:31:50;3.10;;;2.65;;
7150;SDS011;3617;48.836;9.172;2024-03-22T10:34:17;5.18;;;2.90;;
7150;SDS011;3617;48.836;9.172;2024-03-22T10:36:44;4.70;;;2.90;;
7150;SDS011;3617;48.836;9.172;2024-03-22T10:39:12;3.75;;;2.45;;
7150;SDS011;3617;48.836;9.172;2024-03-22T10:41:39;4.25;;;2.80;;
7150;SDS011;3617;48.836;9.172;2024-03-22T10:44:05;3.63;;;2.70;;
7150;SDS011;3617;48.836;9.172;2024-03-22T10:46:33;5.75;;;2.35;;
7150;SDS011;3617;48.836;9.172;2024-03-22T10:48:59;6.43;;;3.10;;
7150;SDS011;3617;48.836;9.172;2024-03-22T10:51:29;3.47;;;2.15;;
7150;SDS011;3617;48.836;9.172;2024-03-22T10:53:55;3.65;;;2.55;;
7150;SDS011;3617;48.836;9.172;2024-03-22T10:56:23;3.85;;;2.33;;
7150;SDS011;3617;48.836;9.172;2024-03-22T10:58:50;3.75;;;2.50;;
7150;SDS011;3617;48.836;9.172;2024-03-22T11:01:23;4.05;;;2.67;;
7150;SDS011;3617;48.836;9.172;2024-03-22T11:03:49;3.33;;;2.22;;
7150;SDS011;3617;48.836;9.172;2024-03-22T11:06:19;3.70;;;2.47;;
7150;SDS011;3617;48.836;9.172;2024-03-22T11:08:49;3.45;;;2.70;;
7150;SDS011;3617;48.836;9.172;2024-03-22T11:11:17;3.83;;;2.72;;
7150;SDS011;3617;48.836;9.172;2024-03-22T11:13:43;3.67;;;2.53;;
7150;SDS011;3617;48.836;9.172;2024-03-22T11:16:12;3.33;;;2.38;;
7150;SDS011;3617;48.836;9.172;2024-03-22T11:18:38;3.45;;;2.40;;
7150;SDS011;3617;48.836;9.172;2024-03-22T11:21:04;3.90;;;2.78;;
7150;SDS011;3617;48.836;9.172;2024-03-22T11:23:33;3.15;;;2.53;;
7150;SDS011;3617;48.836;9.172;2024-03-22T11:25:59;4.03;;;2.85;;
7150;SDS011;3617;48.836;9.172;2024-03-22T11:28:26;2.97;;;2.10;;
7150;SDS011;3617;48.836;9.172;2024-03-22T11:30:51;3.13;;;1.95;;
7150;SDS011;3617;48.836;9.172;2024-03-22T11:33:17;4.53;;;2.45;;
7150;SDS011;3617;48.836;9.172;2024-03-22T11:35:44;2.85;;;1.92;;
7150;SDS011;3617;48.836;9.172;2024-03-22T11:38:10;4.43;;;2.22;;
7150;SDS011;3617;48.836;9.172;2024-03-22T11:40:38;2.53;;;1.98;;
7150;SDS011;3617;48.836;9.172;2024-03-22T11:43:04;4.47;;;2.03;;
7150;SDS011;3617;48.836;9.172;2024-03-22T11:45:30;4.03;;;2.28;;
7150;SDS011;3617;48.836;9.172;2024-03-22T11:48:01;3.90;;;1.83;;
7150;SDS011;3617;48.836;9.172;2024-03-22T11:50:27;2.55;;;2.00;;
7150;SDS011;3617;48.836;9.172;2024-03-22T11:52:53;2.13;;;1.63;;
7150;SDS011;3617;48.836;9.172;2024-03-22T11:55:19;2.67;;;2.17;;
7150;SDS011;3617;48.836;9.172;2024-03-22T11:57:48;4.97;;;1.80;;
7150;SDS011;3617;48.836;9.172;2024-03-22T12:00:14;3.20;;;1.65;;
7150;SDS011;3617;48.836;9.172;2024-03-22T12:02:40;2.35;;;1.85;;
7150;SDS011;3617;48.836;9.172;2024-03-22T12:05:07;2.60;;;1.83;;
7150;SDS011;3617;48.836;9.172;2024-03-22T12:07:33;2.10;;;1.55;;
7150;SDS011;3617;48.836;9.172;2024-03-22T12:09:59;3.38;;;1.73;;
7150;SDS011;3617;48.836;9.172;2024-03-22T12:12:25;2.92;;;2.20;;
7150;SDS011;3617;48.836;9.172;2024-03-22T12:14:54;2.97;;;1.90;;
7150;SDS011;3617;48.836;9.172;2024-03-22T12:17:20;5.82;;;1.95;;
7150;SDS011;3617;48.836;9.172;2024-03-22T12:19:46;2.67;;;1.70;;
7150;SDS011;3617;48.836;9.172;2024-03-22T12:22:12;3.40;;;2.13;;
7150;SDS011;3617;48.836;9.172;2024-03-22T12:24:38;3.33;;;1.98;;
7150;SDS011;3617;48.836;9.172;2024-03-22T12:27:04;2.15;;;1.67;;
7150;SDS011;3617;48.836;9.172;2024-03-22T12:29:33;2.85;;;1.67;;
7150;SDS011;3617;48.836;9.172;2024-03-22T12:31:59;3.80;;;1.80;;
7150;SDS011;3617;48.836;9.172;2024-03-22T12:34:29;3.35;;;1.98;;
7150;SDS011;3617;48.836;9.172;2024-03-22T12:36:55;3.72;;;2.33;;
7150;SDS011;3617;48.836;9.172;2024-03-22T12:39:21;2.88;;;1.98;;
7150;SDS011;3617;48.836;9.172;2024-03-22T12:41:47;2.53;;;1.63;;
7150;SDS011;3617;48.836;9.172;2024-03-22T12:44:13;2.55;;;1.67;;
7150;SDS011;3617;48.836;9.172;2024-03-22T12:46:39;4.13;;;1.70;;
7150;SDS011;3617;48.836;9.172;2024-03-22T12:49:08;3.08;;;1.85;;
7150;SDS011;3617;48.836;9.172;2024-03-22T12:51:37;3.08;;;1.73;;
7150;SDS011;3617;48.836;9.172;2024-03-22T12:54:03;2.25;;;1.80;;
7150;SDS011;3617;48.836;9.172;2024-03-22T12:56:30;2.42;;;1.77;;
7150;SDS011;3617;48.836;9.172;2024-03-22T12:58:56;2.40;;;1.50;;
7150;SDS011;3617;48.836;9.172;2024-03-22T13:01:22;3.55;;;1.95;;
7150;SDS011;3617;48.836;9.172;2024-03-22T13:03:48;3.45;;;1.90;;
7150;SDS011;3617;48.836;9.172;2024-03-22T13:06:14;2.22;;;1.65;;
7150;SDS011;3617;48.836;9.172;2024-03-22T13:08:40;4.25;;;1.50;;
7150;SDS011;3617;48.836;9.172;2024-03-22T13:11:07;2.75;;;1.70;;
7150;SDS011;3617;48.836;9.172;2024-03-22T13:13:34;2.53;;;1.58;;
7150;SDS011;3617;48.836;9.172;2024-03-22T13:16:00;2.38;;;1.48;;
7150;SDS011;3617;48.836;9.172;2024-03-22T13:18:27;2.97;;;1.70;;
7150;SDS011;3617;48.836;9.172;2024-03-22T13:20:53;2.78;;;2.10;;
7150;SDS011;3617;48.836;9.172;2024-03-22T13:23:19;2.65;;;1.77;;
7150;SDS011;3617;48.836;9.172;2024-03-22T13:25:45;2.53;;;2.00;;
7150;SDS011;3617;48.836;9.172;2024-03-22T13:28:11;2.70;;;2.20;;
7150;SDS011;3617;48.836;9.172;2024-03-22T13:30:37;3.25;;;2.17;;
7150;SDS011;3617;48.836;9.172;2024-03-22T13:33:03;4.20;;;2.28;;
7150;SDS011;3617;48.836;9.172;2024-03-22T13:35:30;3.65;;;1.95;;
7150;SDS011;3617;48.836;9.172;2024-03-22T13:37:58;3.33;;;1.95;;
7150;SDS011;3617;48.836;9.172;2024-03-22T13:40:26;2.55;;;2.20;;
7150;SDS011;3617;48.836;9.172;2024-03-22T13:42:55;3.65;;;2.30;;
7150;SDS011;3617;48.836;9.172;2024-03-22T13:45:21;4.15;;;1.80;;
7150;SDS011;3617;48.836;9.172;2024-03-22T13:47:47;2.70;;;1.95;;
7150;SDS011;3617;48.836;9.172;2024-03-22T13:50:13;3.13;;;2.47;;
7150;SDS011;3617;48.836;9.172;2024-03-22T13:52:39;2.65;;;1.92;;
7150;SDS011;3617;48.836;9.172;2024-03-22T13:55:05;4.13;;;2.42;;
7150;SDS011;3617;48.836;9.172;2024-03-22T13:57:33;4.18;;;2.35;;
7150;SDS011;3617;48.836;9.172;2024-03-22T13:59:59;4.13;;;2.13;;
7150;SDS011;3617;48.836;9.172;2024-03-22T14:02:31;3.90;;;2.22;;
7150;SDS011;3617;48.836;9.172;2024-03-22T14:04:58;2.97;;;2.00;;
7150;SDS011;3617;48.836;9.172;2024-03-22T14:07:24;2.88;;;2.10;;
7150;SDS011;3617;48.836;9.172;2024-03-22T14:09:50;2.60;;;1.70;;
7150;SDS011;3617;48.836;9.172;2024-03-22T14:12:15;3.13;;;1.90;;
7150;SDS011;3617;48.836;9.172;2024-03-22T14:14:41;2.08;;;1.67;;
7150;SDS011;3617;48.836;9.172;2024-03-22T14:17:07;2.33;;;1.60;;
7150;SDS011;3617;48.836;9.172;2024-03-22T14:19:33;2.50;;;1.75;;
7150;SDS011;3617;48.836;9.172;2024-03-22T14:21:59;2.25;;;1.38;;
7150;SDS011;3617;48.836;9.172;2024-03-22T14:24:25;1.80;;;1.33;;
7150;SDS011;3617;48.836;9.172;2024-03-22T14:26:51;1.30;;;1.20;;
7150;SDS011;3617;48.836;9.172;2024-03-22T14:29:17;2.42;;;1.20;;
7150;SDS011;3617;48.836;9.172;2024-03-22T14:31:44;2.03;;;1.50;;
7150;SDS011;3617;48.836;9.172;2024-03-22T14:34:12;2.80;;;1.15;;
7150;SDS011;3617;48.836;9.172;2024-03-22T14:36:38;1.63;;;1.20;;
7150;SDS011;3617;48.836;9.172;2024-03-22T14:39:04;2.30;;;1.20;;
7150;SDS011;3617;48.836;9.172;2024-03-22T14:41:31;3.80;;;1.27;;
7150;SDS011;3617;48.836;9.172;2024-03-22T14:43:58;1.65;;;1.33;;
7150;SDS011;3617;48.836;9.172;2024-03-22T14:46:24;1.52;;;1.38;;
7150;SDS011;3617;48.836;9.172;2024-03-22T14:48:53;2.80;;;1.33;;
7150;SDS011;3617;48.836;9.172;2024-03-22T14:51:20;1.85;;;1.30;;
7150;SDS011;3617;48.836;9.172;2024-03-22T14:53:45;1.15;;;1.05;;
7150;SDS011;3617;48.836;9.172;2024-03-22T14:56:11;2.50;;;1.02;;
7150;SDS011;3617;48.836;9.172;2024-03-22T14:58:39;1.50;;;1.20;;
7150;SDS011;3617;48.836;9.172;2024-03-22T15:01:04;1.08;;;0.90;;
7150;SDS011;3617;48.836;9.172;2024-03-22T15:03:31;2.08;;;1.15;;
7150;SDS011;3617;48.836;9.172;2024-03-22T15:05:58;3.38;;;1.30;;
7150;SDS011;3617;48.836;9.172;2024-03-22T15:08:27;1.20;;;1.10;;